Flight Track Log - Related Links

Times and Time Zones

All times are in EDT time to prevent confusion due to time zone crossing. See the TAM3375 flight status page for this flight to view local times or setup timezone preferences in your user account.

Time Position Orientation Groundspeed Altitude Reporting Facility
EDT Latitude Longitude Course Direction KTS MPH feet Rate Location/Type
Tue 06:10:00 PM -21.5565 -42.7293 240° Southwest  Level Estimated
Tue 06:11:00 PM -21.6022 -42.8173 241° Southwest  Level Estimated
Tue 06:12:00 PM -21.6479 -42.9054 241° Southwest  Level Estimated
Tue 06:13:00 PM -21.7029 -43.0118 241° Southwest  Level Estimated
Tue 06:14:00 PM -21.7579 -43.1183 241° Southwest  Level Estimated
Tue 06:15:00 PM -21.8128 -43.2249 241° Southwest  Level Estimated
Tue 06:16:00 PM -21.8677 -43.3315 241° Southwest  Level Estimated
Tue 06:17:00 PM -21.9225 -43.4382 241° Southwest  Level Estimated
Tue 06:18:00 PM -21.9772 -43.5450 241° Southwest  Level Estimated
Tue 06:19:00 PM -22.0319 -43.6519 241° Southwest  Level Estimated
Tue 06:20:00 PM -22.0864 -43.7589 241° Southwest  Level Estimated
Tue 06:21:00 PM -22.1409 -43.8659 241° Southwest  Level Estimated
Tue 06:22:00 PM -22.1954 -43.9731 241° Southwest  Level Estimated
Tue 06:23:00 PM -22.2498 -44.0803 241° Southwest  Level Estimated
Tue 06:24:00 PM -22.3041 -44.1876 241° Southwest  Level Estimated
Tue 06:25:00 PM -22.3583 -44.2950 241° Southwest  Level Estimated
Tue 06:26:00 PM -22.4125 -44.4024 241° Southwest  Level Estimated
Tue 06:27:00 PM -22.4665 -44.5100 241° Southwest  Level Estimated
Tue 06:28:00 PM -22.5206 -44.6176 241° Southwest  Level Estimated
Tue 06:29:00 PM -22.5745 -44.7253 242° Southwest  Level Estimated
Tue 06:30:00 PM -22.6284 -44.8331 242° Southwest  Level Estimated
Tue 06:31:00 PM -22.6822 -44.9410 242° Southwest  Level Estimated
Tue 06:32:00 PM -22.7359 -45.0490 242° Southwest  Level Estimated
Tue 06:33:00 PM -22.7896 -45.1571 242° Southwest  Level Estimated
Tue 06:34:00 PM -22.8431 -45.2652 242° Southwest  Level Estimated
Tue 06:35:00 PM -22.8967 -45.3734 242° Southwest  Level Estimated
Tue 06:36:00 PM -22.9501 -45.4817 242° Southwest  Level Estimated
Tue 06:37:00 PM -23.0035 -45.5901 242° Southwest  Level Estimated
Tue 06:38:00 PM -23.0567 -45.6986 242° Southwest  Level Estimated
Tue 06:39:00 PM -23.1100 -45.8072 242° Southwest  Level Estimated
Tue 06:40:00 PM -23.1631 -45.9158 242° Southwest  Level Estimated
Tue 06:41:00 PM -23.2162 -46.0246 242° Southwest  Level Estimated
Tue 06:42:00 PM -23.2692 -46.1334 242° Southwest  Level Estimated
Tue 06:43:00 PM -23.3221 -46.2423 242° Southwest  Level Estimated
Tue 06:44:00 PM -23.3749 -46.3513 242° Southwest  Level Estimated
Tue 06:45:00 PM -23.4277 -46.4604 242° Southwest  Level Estimated
Tue 06:46:00 PM -23.4321 -46.4695 242° Southwest  Level Estimated
Tue 06:47:00 PM -23.4321 -46.4695 350° North  Level Estimated
Tue 06:48:00 PM -23.4321 -46.4695 350° North  Level Estimated
Tue 06:49:00 PM -23.4321 -46.4695 350° North  Level Estimated
Tue 06:50:00 PM -23.4321 -46.4695 350° North  Level Estimated
Tue 06:51:00 PM -23.4321 -46.4695 350° North  Level Estimated
Tue 06:52:00 PM -23.4321 -46.4695 350° North  Level Estimated
Tue 06:53:00 PM -23.4321 -46.4695 350° North  Level Estimated
Tue 06:54:00 PM -23.4321 -46.4695 350° North  Level Estimated
Tue 06:55:00 PM -23.4321 -46.4695 350° North  Level Estimated
Tue 06:56:00 PM -23.4321 -46.4695 350° North  Level Estimated

Login

Don't have an account? Register now (free) for customized features, flight alerts, and more!